• Join FlightAware (Why Join?)
  • Login
  • US Flag 
07:43PM EDT


 

Airport Tracker/Info


-or-


 

Live Flight TrackerFlight Track Log ✈ N563WD ✈ 30-Aug-2013 ✈ KHOU - KASE

Flight Track Log - Related Links

Times and Time Zones

All times are in EDT time to prevent confusion due to time zone crossing. See the N563WD flight status page for this flight to view local times or setup timezone preferences in your user account.

Time Position Orientation Groundspeed Altitude Reporting Facility
EDT Latitude Longitude Course Direction KTS MPH feet Rate Location/Type
10:53AM 29.6353 -95.2867 152° Southeast 174 200 600  Level Houston Center
10:54AM 29.6019 -95.2667 152° Southeast 231 266 3,800 2,880 Climbing Houston Center
10:55AM 29.6669 -95.2661 360° North 241 277 6,800 2,040 Climbing Houston Center
10:56AM 29.7292 -95.2925 340° North 258 297 8,200 1,680 Climbing Houston Center
10:57AM 29.8203 -95.3342 338° Northwest 312 359 10,300 2,040 Climbing Houston Center
10:58AM 29.9089 -95.3725 339° North 311 358 12,500 1,560 Climbing Houston Center
10:59AM 29.9922 -95.4100 339° North 315 362 13,800 1,440 Climbing Houston Center
11:00AM 30.0817 -95.4489 339° North 334 384 15,500 1,560 Climbing Houston Center
11:01AM 30.1700 -95.4883 339° North 339 390 17,100 1,380 Climbing Houston Center
11:02AM 30.2803 -95.5383 339° North 350 403 18,400 1,140 Climbing Houston Center
11:03AM 30.3761 -95.5803 339° North 361 415 19,500 960 Climbing Houston Center
11:04AM 30.4736 -95.6228 339° North 371 427 20,500 960 Climbing Houston Center
11:05AM 30.5736 -95.6678 339° North 382 440 21,600 1,020 Climbing Houston Center
11:06AM 30.6711 -95.7222 334° Northwest 387 445 22,700 960 Climbing Houston Center
11:07AM 30.7697 -95.7778 334° Northwest 385 443 23,700 960 Climbing Houston Center
11:08AM 30.8897 -95.8417 335° Northwest 393 452 24,700 840 Climbing Houston Center
11:09AM 30.9900 -95.8950 335° Northwest 395 455 25,500 660 Climbing Houston Center
11:10AM 31.0900 -95.9489 335° Northwest 394 453 26,100 480 Climbing Houston Center
11:11AM 31.1950 -95.9939 340° North 400 460 26,600 540 Climbing Houston Center
11:12AM 31.3011 -96.0361 341° North 402 463 27,300 720 Climbing Houston Center
11:13AM 31.4075 -96.0769 342° North 402 463 28,200 960 Climbing Houston Center
11:15AM 31.5200 -96.1206 342° North 399 459 29,300 960 Climbing Houston Center
11:16AM 31.6133 -96.1939 326° Northwest 399 459 30,300 960 Climbing Houston Center
11:17AM 31.6889 -96.2914 312° West 401 461 31,300 1,020 Climbing Houston Center
11:18AM 31.7764 -96.4047 312° West 400 460 32,500 1,020 Climbing Houston Center
11:19AM 31.8517 -96.5025 312° West 401 461 33,500 960 Climbing Houston Center
11:20AM 31.9264 -96.6006 312° West 399 459 34,500 960 Climbing Houston Center
11:21AM 32.0008 -96.6983 312° West 398 458 35,500 960 Climbing Houston Center
11:22AM 32.0750 -96.7958 312° West 396 456 36,600 960 Climbing Houston Center
11:23AM 32.1489 -96.8936 312° West 396 456 37,600 960 Climbing Houston Center
11:24AM 32.2419 -97.0278 309° West 400 460 38,900 1,020 Climbing Fort Worth Center
11:25AM 32.3133 -97.1208 312° West 395 455 39,900 540 Climbing Fort Worth Center
11:26AM 32.3864 -97.2167 312° West 395 455 40,000  Climbing Fort Worth Center
11:27AM 32.4597 -97.3172 311° West 395 455 40,000  Level Fort Worth Center
11:28AM 32.5347 -97.4183 311° West 405 466 40,000  Level Fort Worth Center
11:29AM 32.6119 -97.5219 312° West 405 466 40,000  Level Fort Worth Center
11:30AM 32.6869 -97.6258 311° West 410 472 40,000  Level Fort Worth Center
11:31AM 32.7661 -97.7272 313° West 410 472 40,000  Level Fort Worth Center
11:32AM 32.8411 -97.8314 311° West 416 479 40,000  Level Fort Worth Center
11:33AM 32.9117 -97.9231 313° West 416 479 40,000  Level Fort Worth Center
11:34AM 32.9883 -98.0278 311° West 411 473 40,000  Level Fort Worth Center
11:35AM 33.0672 -98.1322 312° West 416 479 40,000  Level Fort Worth Center
11:36AM 33.1458 -98.2422 310° West 416 479 40,000  Level Fort Worth Center
11:37AM 33.2222 -98.3447 312° West 416 479 40,000  Level Fort Worth Center
11:38AM 33.3028 -98.4597 310° West 422 486 40,000  Level Fort Worth Center
11:39AM 33.3772 -98.5553 313° West 411 473 40,000  Level Fort Worth Center
11:40AM 33.4533 -98.6608 311° West 416 479 40,000  Level Fort Worth Center
11:41AM 33.5336 -98.7717 311° West 416 479 40,000  Level Fort Worth Center
11:42AM 33.6117 -98.8850 310° West 431 496 40,000  Level Fort Worth Center
11:43AM 33.6917 -98.9936 312° West 431 496 40,000  Level Fort Worth Center
11:44AM 33.7675 -99.1050 309° West 431 496 40,000  Level Fort Worth Center
11:45AM 33.8453 -99.2117 311° West 426 490 40,000  Level Fort Worth Center
11:46AM 33.9250 -99.3183 312° West 426 490 40,000  Level Fort Worth Center
11:47AM 34.0025 -99.4328 309° West 434 499 40,000  Level Fort Worth Center
11:48AM 34.0800 -99.5450 310° West 434 499 40,000  Level Fort Worth Center
11:49AM 34.1594 -99.6572 311° West 441 507 40,000  Level Fort Worth Center
11:51AM 34.3419 -99.9186 310° West 440 506 40,000  Level Albuquerque Center
11:52AM 34.4358 -100.0564 310° West 440 506 40,000  Level Albuquerque Center
11:54AM 34.5139 -100.1669 311° West 440 506 40,000  Level Albuquerque Center
11:55AM 34.5925 -100.2808 310° West 441 507 40,000  Level Albuquerque Center
11:56AM 34.6736 -100.3997 310° West 442 509 40,000  Level Albuquerque Center
11:57AM 34.7492 -100.5092 310° West 441 507 40,000  Level Albuquerque Center
11:58AM 34.8428 -100.6478 309° West 443 510 40,000  Level Albuquerque Center
11:59AM 34.9214 -100.7619 310° West 442 509 40,000  Level Albuquerque Center
12:00PM 35.0000 -100.8781 310° West 444 511 40,000  Level Albuquerque Center
12:01PM 35.0781 -100.9928 310° West 443 510 40,000  Level Albuquerque Center
12:02PM 35.1553 -101.1089 309° West 442 509 40,000  Level Albuquerque Center
12:03PM 35.2492 -101.2469 310° West 443 510 40,000  Level Albuquerque Center
12:04PM 35.3197 -101.3536 309° West 446 513 40,000  Level Albuquerque Center
12:05PM 35.3978 -101.4711 309° West 444 511 40,000  Level Albuquerque Center
12:06PM 35.4744 -101.5875 309° West 441 507 40,000  Level Albuquerque Center
12:07PM 35.5706 -101.7308 310° West 441 507 40,000  Level Albuquerque Center
12:08PM 35.6447 -101.8436 309° West 432 497 40,000  Level Albuquerque Center
12:09PM 35.7197 -101.9592 309° West 433 498 40,000  Level Albuquerque Center
12:10PM 35.7956 -102.0736 309° West 434 499 40,000  Level Albuquerque Center
12:11PM 35.8714 -102.1911 309° West 438 504 40,000  Level Albuquerque Center
12:12PM 35.9475 -102.3081 309° West 438 504 40,000  Level Albuquerque Center
12:13PM 36.0392 -102.4483 309° West 439 505 40,000  Level Albuquerque Center
12:14PM 36.1147 -102.5658 309° West 438 504 40,000  Level Albuquerque Center
12:15PM 36.1903 -102.6828 309° West 437 503 40,000  Level Albuquerque Center
12:16PM 36.2653 -102.8003 308° West 436 502 40,000  Level Albuquerque Center
12:17PM 36.3511 -102.9336 309° West 436 502 40,000  Level Albuquerque Center
12:18PM 36.4253 -103.0517 308° West 433 498 40,000  Level Albuquerque Center
12:19PM 36.5011 -103.1714 308° West 436 502 40,000  Level Albuquerque Center
12:20PM 36.5756 -103.2897 308° West 433 498 40,000  Level Albuquerque Center
12:21PM 36.6536 -103.4131 308° West 430 495 40,000  Level Albuquerque Center
12:22PM 36.7244 -103.5261 308° West 430 495 40,000 -60 Level Albuquerque Center
12:23PM 36.8064 -103.6581 308° West 431 496 39,900 -540 Descending Albuquerque Center
12:25PM 36.8767 -103.7706 308° West 429 494 38,900 -960 Descending Albuquerque Center
12:26PM 36.9594 -103.9031 308° West 430 495 38,000 -480 Descending Albuquerque Center
12:27PM 37.0303 -104.0167 308° West 431 496 38,000 -240 Level Albuquerque Center
12:28PM 37.1125 -104.1514 307° West 433 498 37,600 -720 Descending Albuquerque Center
12:29PM 37.1808 -104.2664 307° West 427 491 36,600 -1,020 Descending Denver Center
12:30PM 37.2625 -104.3983 308° West 426 490 35,500 -1,020 Descending Denver Center
12:31PM 37.3350 -104.5167 308° West 438 504 34,500 -1,020 Descending Denver Center
12:32PM 37.4061 -104.6344 307° West 440 506 33,500 -1,020 Descending Denver Center
12:33PM 37.4897 -104.7725 307° West 441 507 32,400 -1,020 Descending Denver Center
12:34PM 37.5631 -104.8925 308° West 448 516 31,500 -1,020 Descending Denver Center
12:35PM 37.6486 -105.0356 307° West 455 524 30,400 -780 Descending Denver Center
12:36PM 37.7203 -105.1561 307° West 451 519 30,000 -240 Descending Denver Center
12:37PM 37.8006 -105.2908 307° West 431 496 30,000 -180 Level Denver Center
12:38PM 37.8683 -105.4050 307° West 424 488 29,700 -780 Descending Denver Center
12:39PM 37.9494 -105.5425 307° West 435 501 28,500 -960 Descending Denver Center
12:40PM 38.0200 -105.6611 307° West 440 506 27,800 -780 Descending Denver Center
12:41PM 38.1008 -105.8003 306° West 438 504 27,000 -420 Descending Denver Center
12:42PM 38.1689 -105.9164 307° West 427 491 27,000 -300 Level Denver Center
12:43PM 38.2389 -106.0275 309° West 422 486 26,400 -1,020 Descending Denver Center
12:44PM 38.3569 -106.1156 330° Northwest 436 502 24,900 -1,500 Descending Denver Center
12:45PM 38.4672 -106.1944 331° Northwest 447 514 23,300 -1,500 Descending Denver Center
12:46PM 38.5717 -106.2678 331° Northwest 430 495 21,800 -1,440 Descending Denver Center
12:47PM 38.6875 -106.3514 331° Northwest 425 489 20,400 -1,200 Descending Denver Center
12:48PM 38.7892 -106.4236 331° Northwest 419 482 19,400 -1,020 Descending Denver Center
12:49PM 38.8950 -106.4958 332° Northwest 410 472 18,400 -780 Descending Denver Center
12:50PM 38.9900 -106.5661 330° Northwest 410 472 17,800 -780 Descending Denver Center
12:51PM 39.0978 -106.6439 331° Northwest 402 463 16,800 -540 Descending Denver Center
12:52PM 39.1775 -106.7003 331° Northwest 354 407 16,800 -420 Level Denver Center
12:54PM 39.2500 -106.7325 341° North 288 331 16,000 -540 Descending Denver Center
12:55PM 39.3200 -106.7631 341° North 270 311 15,800 -120 Descending Denver Center
12:56PM 39.3936 -106.7964 341° North 278 320 15,800 60 Level Denver Center
12:57PM 39.4781 -106.8339 341° North 276 318 16,000  Climbing Denver Center
12:58PM 39.5531 -106.8756 337° Northwest 264 304 15,800 -120 Descending Denver Center
12:59PM 39.5678 -106.9661 282° West 269 310 15,800  Level Denver Center
01:00PM 39.5067 -107.0042 206° Southwest 278 320 15,800 -420 Level Denver Center
01:01PM 39.4433 -106.9756 161° South 283 326 15,000 -1,560 Descending Denver Center
01:02PM 39.3689 -106.9394 159° South 275 316 12,600 -2,760 Descending Denver Center
01:03PM 39.2897 -106.9019 160° South 264 304 9,300 -1,980 Descending Denver Center
01:04PM 39.2361 -106.8761 160° South 252 290 8,600 -720 Descending Denver Center